Time;durP1;ratioP1;P1;durP2;ratioP2;P2;SDS_P1;SDS_P2;PMS_P1;PMS_P2;Temp;Humidity;BMP_temperature;BMP_pressure;BME280_temperature;BME280_humidity;BME280_pressure;Samples;Min_cycle;Max_cycle;Signal;HPM_P1;HPM_P2
2022/07/12 00:01:43;;;;;;;5.82;4.47;;;;;;;;;;5097907;28;20171;-70
2022/07/12 00:04:09;;;;;;;5.40;4.38;;;;;;;;;;5109738;28;20503;-69
2022/07/12 00:06:36;;;;;;;7.30;3.75;;;;;;;;;;5108647;28;20678;-69
2022/07/12 00:09:02;;;;;;;7.88;3.53;;;;;;;;;;5111198;28;20043;-71
2022/07/12 00:11:28;;;;;;;5.50;3.83;;;;;;;;;;5112170;28;20054;-70
2022/07/12 00:13:54;;;;;;;6.05;4.40;;;;;;;;;;5121142;27;20040;-69
2022/07/12 00:16:22;;;;;;;7.32;4.90;;;;;;;;;;5107496;28;20227;-69
2022/07/12 00:18:48;;;;;;;11.30;5.70;;;;;;;;;;5117545;27;20040;-70
2022/07/12 00:21:15;;;;;;;5.80;4.38;;;;;;;;;;5114249;27;20522;-69
2022/07/12 00:23:41;;;;;;;6.22;4.72;;;;;;;;;;5134131;27;20561;-69
2022/07/12 00:26:07;;;;;;;8.55;5.43;;;;;;;;;;5132540;27;20040;-69
2022/07/12 00:28:33;;;;;;;7.10;4.35;;;;;;;;;;5116199;27;20377;-69
2022/07/12 00:31:00;;;;;;;6.35;4.90;;;;;;;;;;5118820;27;20031;-70
2022/07/12 00:33:26;;;;;;;5.97;4.68;;;;;;;;;;5112825;27;20043;-70
2022/07/12 00:35:52;;;;;;;5.55;4.35;;;;;;;;;;5119026;27;20126;-70
2022/07/12 00:38:19;;;;;;;7.30;5.07;;;;;;;;;;5123856;27;20553;-69
2022/07/12 00:40:45;;;;;;;8.05;4.53;;;;;;;;;;5123513;27;20039;-69
2022/07/12 00:43:11;;;;;;;8.32;5.90;;;;;;;;;;5115669;27;20492;-69
2022/07/12 00:45:37;;;;;;;8.50;6.07;;;;;;;;;;5113433;27;20043;-69
2022/07/12 00:48:03;;;;;;;10.68;7.20;;;;;;;;;;5113197;27;20052;-69
2022/07/12 00:50:29;;;;;;;8.82;6.00;;;;;;;;;;5104296;27;20079;-69
2022/07/12 00:52:55;;;;;;;11.35;8.48;;;;;;;;;;5097578;28;20110;-69
2022/07/12 00:55:22;;;;;;;10.52;6.85;;;;;;;;;;5123863;27;20080;-69
2022/07/12 00:57:48;;;;;;;9.02;6.75;;;;;;;;;;5117991;27;20044;-69
2022/07/12 01:00:16;;;;;;;10.65;7.15;;;;;;;;;;5123179;27;20426;-69
2022/07/12 01:02:43;;;;;;;10.15;6.75;;;;;;;;;;5114802;27;20492;-70
2022/07/12 01:05:09;;;;;;;12.20;7.90;;;;;;;;;;5117041;27;20265;-69
2022/07/12 01:07:36;;;;;;;12.68;7.30;;;;;;;;;;5099838;28;20646;-69
2022/07/12 01:10:02;;;;;;;10.82;7.65;;;;;;;;;;5114505;27;20076;-70
2022/07/12 01:12:29;;;;;;;9.82;6.90;;;;;;;;;;5113013;27;20391;-69
2022/07/12 01:14:55;;;;;;;11.45;7.68;;;;;;;;;;5112455;28;20036;-70
2022/07/12 01:17:23;;;;;;;10.85;7.70;;;;;;;;;;5133132;27;20043;-69
2022/07/12 01:19:51;;;;;;;13.60;7.55;;;;;;;;;;5102163;27;20062;-70
2022/07/12 01:22:18;;;;;;;10.43;7.07;;;;;;;;;;5109835;27;20569;-70
2022/07/12 01:24:45;;;;;;;10.90;7.88;;;;;;;;;;5107886;27;20038;-69
2022/07/12 01:27:12;;;;;;;9.63;7.05;;;;;;;;;;5115219;27;20039;-69
2022/07/12 01:29:38;;;;;;;16.63;9.27;;;;;;;;;;5106950;27;20043;-70
2022/07/12 01:34:50;;;;;;;16.48;10.13;;;;;;;;;;5116129;27;20078;-70
2022/07/12 01:37:17;;;;;;;17.52;11.60;;;;;;;;;;5114430;27;20051;-70
2022/07/12 01:39:43;;;;;;;21.42;14.32;;;;;;;;;;5110387;27;20129;-69
2022/07/12 01:42:10;;;;;;;30.95;17.52;;;;;;;;;;5103631;27;20083;-69
2022/07/12 01:44:36;;;;;;;31.42;19.55;;;;;;;;;;5073590;28;20043;-70
2022/07/12 01:47:02;;;;;;;24.85;17.50;;;;;;;;;;5097028;28;20393;-70
2022/07/12 01:49:28;;;;;;;25.00;15.70;;;;;;;;;;5097000;28;20048;-70
2022/07/12 01:51:58;;;;;;;23.73;15.65;;;;;;;;;;5100744;28;20039;-69
2022/07/12 01:54:25;;;;;;;25.88;15.75;;;;;;;;;;5089454;28;20536;-69
2022/07/12 01:56:52;;;;;;;22.52;12.63;;;;;;;;;;5090379;28;20044;-70
2022/07/12 01:59:18;;;;;;;16.13;9.65;;;;;;;;;;5092246;28;20044;-69
2022/07/12 02:01:45;;;;;;;13.75;9.27;;;;;;;;;;5082656;28;20051;-69
2022/07/12 02:04:12;;;;;;;11.20;8.20;;;;;;;;;;5090075;28;20048;-69
2022/07/12 02:06:39;;;;;;;12.38;9.07;;;;;;;;;;5112310;27;20039;-70
2022/07/12 02:09:05;;;;;;;11.68;8.27;;;;;;;;;;5076277;28;20404;-69
2022/07/12 02:11:31;;;;;;;12.00;8.43;;;;;;;;;;5106809;27;20047;-70
2022/07/12 02:13:57;;;;;;;11.95;8.43;;;;;;;;;;5090630;28;20047;-69
2022/07/12 02:16:24;;;;;;;11.18;7.88;;;;;;;;;;5114069;27;20048;-70
2022/07/12 02:18:50;;;;;;;10.52;7.03;;;;;;;;;;5098166;28;20040;-69
2022/07/12 02:21:16;;;;;;;10.50;7.25;;;;;;;;;;5091156;28;20048;-70
2022/07/12 02:23:42;;;;;;;10.00;7.55;;;;;;;;;;5109557;27;20072;-70
2022/07/12 02:26:08;;;;;;;10.30;7.03;;;;;;;;;;5101487;27;20560;-69
2022/07/12 02:28:34;;;;;;;9.52;6.30;;;;;;;;;;5099787;27;20051;-69
2022/07/12 02:31:00;;;;;;;14.20;8.55;;;;;;;;;;5096234;28;20039;-70
2022/07/12 02:33:27;;;;;;;11.50;6.40;;;;;;;;;;5093959;28;20560;-70
2022/07/12 02:35:53;;;;;;;10.40;7.07;;;;;;;;;;5071370;28;20042;-69
2022/07/12 02:38:21;;;;;;;15.18;7.35;;;;;;;;;;5080600;28;20426;-69
2022/07/12 02:40:53;;;;;;;9.20;5.80;;;;;;;;;;5096440;28;20130;-69
2022/07/12 02:43:23;;;;;;;11.80;6.43;;;;;;;;;;5088051;28;20047;-69
2022/07/12 02:45:50;;;;;;;7.32;4.85;;;;;;;;;;5094953;28;20035;-70
2022/07/12 02:48:17;;;;;;;9.80;4.55;;;;;;;;;;5091872;28;20510;-70
2022/07/12 02:50:43;;;;;;;12.60;4.55;;;;;;;;;;5108573;27;20048;-70
2022/07/12 02:53:10;;;;;;;12.73;4.82;;;;;;;;;;5077551;28;20047;-70
2022/07/12 02:55:36;;;;;;;6.47;3.92;;;;;;;;;;5081389;28;20447;-70
2022/07/12 02:58:03;;;;;;;20.33;5.68;;;;;;;;;;5095582;28;20609;-69
2022/07/12 03:00:30;;;;;;;15.98;5.38;;;;;;;;;;5083849;28;20646;-70
2022/07/12 03:02:56;;;;;;;9.77;4.35;;;;;;;;;;5086770;28;20035;-70
2022/07/12 03:05:22;;;;;;;19.73;6.05;;;;;;;;;;5066153;28;20049;-70
2022/07/12 03:07:48;;;;;;;23.35;5.78;;;;;;;;;;5111855;27;20505;-69
2022/07/12 03:10:14;;;;;;;13.32;5.13;;;;;;;;;;5095172;28;20101;-70
2022/07/12 03:12:40;;;;;;;8.65;5.13;;;;;;;;;;5088911;28;20035;-70
2022/07/12 03:15:07;;;;;;;42.17;7.25;;;;;;;;;;5087384;28;20074;-71
2022/07/12 03:17:33;;;;;;;11.95;4.38;;;;;;;;;;5070940;28;20482;-70
2022/07/12 03:19:59;;;;;;;11.93;4.47;;;;;;;;;;5075087;28;20381;-70
2022/07/12 03:22:26;;;;;;;8.63;4.32;;;;;;;;;;5103593;28;20040;-70
2022/07/12 03:24:52;;;;;;;18.02;4.95;;;;;;;;;;5089703;28;20090;-70
2022/07/12 03:27:19;;;;;;;12.60;5.28;;;;;;;;;;5088418;28;20046;-69
2022/07/12 03:29:45;;;;;;;11.05;5.13;;;;;;;;;;5082898;28;20048;-70
2022/07/12 03:32:11;;;;;;;18.17;5.38;;;;;;;;;;5091145;28;20134;-70
2022/07/12 03:34:37;;;;;;;9.38;4.05;;;;;;;;;;5095822;28;20138;-70
2022/07/12 03:37:04;;;;;;;9.23;4.82;;;;;;;;;;5110487;27;20035;-70
2022/07/12 03:39:30;;;;;;;28.08;5.95;;;;;;;;;;5097939;28;20055;-69
2022/07/12 03:41:57;;;;;;;9.68;4.72;;;;;;;;;;5085074;28;20513;-70
2022/07/12 03:44:23;;;;;;;6.50;4.63;;;;;;;;;;5095135;28;20122;-69
2022/07/12 03:46:49;;;;;;;6.05;4.45;;;;;;;;;;5087247;28;20305;-70
2022/07/12 03:49:15;;;;;;;5.90;4.50;;;;;;;;;;5079971;28;20104;-68
2022/07/12 03:51:41;;;;;;;8.90;4.90;;;;;;;;;;5078395;28;20050;-67
2022/07/12 03:54:08;;;;;;;10.80;4.80;;;;;;;;;;5091714;28;20531;-67
2022/07/12 03:59:22;;;;;;;8.10;4.53;;;;;;;;;;5096844;28;20476;-67
2022/07/12 04:01:48;;;;;;;17.27;4.63;;;;;;;;;;5094467;28;20043;-68
2022/07/12 04:04:14;;;;;;;5.43;3.45;;;;;;;;;;5113310;27;20229;-67
2022/07/12 04:06:40;;;;;;;5.80;3.25;;;;;;;;;;5094655;28;20036;-67
2022/07/12 04:09:07;;;;;;;6.10;3.83;;;;;;;;;;5096111;28;20040;-67
2022/07/12 04:11:33;;;;;;;6.60;4.13;;;;;;;;;;5092557;28;20048;-67
2022/07/12 04:13:59;;;;;;;6.65;3.88;;;;;;;;;;5098671;28;20040;-67
2022/07/12 04:16:29;;;;;;;7.07;3.83;;;;;;;;;;5108411;27;20045;-68
2022/07/12 04:18:56;;;;;;;21.83;5.25;;;;;;;;;;5091682;28;20079;-67
2022/07/12 04:21:22;;;;;;;6.38;4.47;;;;;;;;;;5108078;27;20055;-68
2022/07/12 04:23:48;;;;;;;6.65;4.55;;;;;;;;;;5116369;27;20036;-67
2022/07/12 04:26:14;;;;;;;5.60;4.18;;;;;;;;;;5114310;27;20197;-67
2022/07/12 04:28:40;;;;;;;7.18;4.88;;;;;;;;;;5102259;28;20550;-67
2022/07/12 04:31:07;;;;;;;8.13;4.70;;;;;;;;;;5094440;28;20492;-68
2022/07/12 04:33:34;;;;;;;5.53;4.13;;;;;;;;;;5092608;28;20047;-70
2022/07/12 04:36:00;;;;;;;9.90;4.38;;;;;;;;;;5093652;28;20101;-71
2022/07/12 04:38:26;;;;;;;6.53;4.47;;;;;;;;;;5094812;28;20044;-70
2022/07/12 04:40:52;;;;;;;6.15;4.07;;;;;;;;;;5102690;28;20059;-70
2022/07/12 04:43:19;;;;;;;5.60;3.70;;;;;;;;;;5095887;28;20032;-70
2022/07/12 04:45:45;;;;;;;5.10;3.42;;;;;;;;;;5113408;27;20039;-70
2022/07/12 04:48:12;;;;;;;5.38;3.75;;;;;;;;;;5093164;28;20048;-70
2022/07/12 04:50:38;;;;;;;5.22;3.88;;;;;;;;;;5097376;28;20130;-70
2022/07/12 04:53:04;;;;;;;5.13;3.42;;;;;;;;;;5096978;28;20054;-70
2022/07/12 04:55:30;;;;;;;7.10;3.80;;;;;;;;;;5093370;28;20035;-69
2022/07/12 04:57:57;;;;;;;6.63;3.63;;;;;;;;;;5097310;28;20042;-71
2022/07/12 05:00:23;;;;;;;5.68;4.15;;;;;;;;;;5077232;28;20044;-71
2022/07/12 05:02:49;;;;;;;5.05;3.63;;;;;;;;;;5091723;28;20265;-70
2022/07/12 05:05:15;;;;;;;4.78;3.33;;;;;;;;;;5090544;28;20109;-70
2022/07/12 05:07:42;;;;;;;6.75;3.47;;;;;;;;;;5108356;27;20074;-69
2022/07/12 05:10:08;;;;;;;4.85;3.58;;;;;;;;;;5089590;28;20044;-70
2022/07/12 05:12:35;;;;;;;4.18;2.70;;;;;;;;;;5070016;28;20104;-69
2022/07/12 05:15:03;;;;;;;4.60;3.55;;;;;;;;;;5091314;28;20047;-70
2022/07/12 05:17:29;;;;;;;4.70;3.63;;;;;;;;;;5072926;28;20492;-69
2022/07/12 05:19:55;;;;;;;6.57;3.60;;;;;;;;;;5091877;28;20068;-70
2022/07/12 05:22:21;;;;;;;4.45;3.00;;;;;;;;;;5088668;28;20087;-70
2022/07/12 05:24:48;;;;;;;4.82;3.05;;;;;;;;;;5093138;28;20502;-70
2022/07/12 05:27:14;;;;;;;4.30;3.13;;;;;;;;;;5073082;28;20078;-70
2022/07/12 05:29:40;;;;;;;4.88;3.35;;;;;;;;;;5092005;28;20046;-69
2022/07/12 05:32:07;;;;;;;4.75;3.70;;;;;;;;;;5084907;28;20036;-70
2022/07/12 05:34:33;;;;;;;4.57;3.42;;;;;;;;;;5085523;28;20047;-70
2022/07/12 05:36:59;;;;;;;5.55;3.30;;;;;;;;;;5078981;28;20044;-70
2022/07/12 05:39:25;;;;;;;5.78;3.70;;;;;;;;;;5105739;27;20082;-71
2022/07/12 05:41:52;;;;;;;3.85;2.75;;;;;;;;;;5070545;28;20048;-70
2022/07/12 05:44:19;;;;;;;4.22;3.45;;;;;;;;;;5083469;28;20048;-70
2022/07/12 05:46:45;;;;;;;5.38;3.28;;;;;;;;;;5082479;28;20047;-70
2022/07/12 05:49:11;;;;;;;4.25;3.22;;;;;;;;;;5105930;27;20048;-67
2022/07/12 05:54:22;;;;;;;4.32;3.42;;;;;;;;;;5099379;28;20048;-67
2022/07/12 05:56:50;;;;;;;6.00;3.30;;;;;;;;;;5088758;28;20044;-68
2022/07/12 05:59:17;;;;;;;4.85;3.50;;;;;;;;;;5088295;28;20048;-67
2022/07/12 06:01:44;;;;;;;4.78;3.33;;;;;;;;;;5072373;28;20067;-68
2022/07/12 06:04:10;;;;;;;5.15;3.35;;;;;;;;;;5077497;28;20106;-67
2022/07/12 06:06:36;;;;;;;4.60;3.15;;;;;;;;;;5107031;27;20075;-67
2022/07/12 06:09:03;;;;;;;4.82;3.67;;;;;;;;;;5091591;28;20046;-67
2022/07/12 06:11:29;;;;;;;4.50;3.22;;;;;;;;;;5090724;28;20343;-67
2022/07/12 06:13:56;;;;;;;4.90;3.05;;;;;;;;;;5083682;28;20068;-68
2022/07/12 06:16:22;;;;;;;4.55;2.75;;;;;;;;;;5102516;27;20504;-68
2022/07/12 06:18:48;;;;;;;4.68;2.83;;;;;;;;;;5086028;28;20104;-67
2022/07/12 06:21:14;;;;;;;4.88;2.83;;;;;;;;;;5090597;28;20035;-68
2022/07/12 06:23:40;;;;;;;4.13;2.83;;;;;;;;;;5071736;28;20066;-67
2022/07/12 06:26:06;;;;;;;4.05;3.10;;;;;;;;;;5082035;28;20378;-67
2022/07/12 06:28:32;;;;;;;5.20;3.05;;;;;;;;;;5087870;28;20047;-67
2022/07/12 06:30:59;;;;;;;5.80;3.50;;;;;;;;;;5089651;28;20442;-67
2022/07/12 06:33:25;;;;;;;4.90;3.00;;;;;;;;;;5075450;28;20040;-67
2022/07/12 06:35:51;;;;;;;4.00;3.08;;;;;;;;;;5090773;28;20052;-67
2022/07/12 06:38:17;;;;;;;3.45;2.47;;;;;;;;;;5113424;27;20040;-68
2022/07/12 06:40:43;;;;;;;5.88;3.45;;;;;;;;;;5094414;28;20100;-68
2022/07/12 06:43:10;;;;;;;4.10;2.88;;;;;;;;;;5093135;28;20044;-67
2022/07/12 06:45:37;;;;;;;5.22;3.92;;;;;;;;;;5089476;28;20069;-67
2022/07/12 06:48:05;;;;;;;4.05;3.15;;;;;;;;;;5093674;28;20055;-68
2022/07/12 06:50:31;;;;;;;4.85;3.47;;;;;;;;;;5105076;27;20081;-67
2022/07/12 06:52:57;;;;;;;4.95;3.15;;;;;;;;;;5096942;27;20047;-67
2022/07/12 06:55:24;;;;;;;4.35;3.28;;;;;;;;;;5088712;28;20051;-67
2022/07/12 06:57:50;;;;;;;5.25;2.88;;;;;;;;;;5096538;28;20123;-68
2022/07/12 07:00:16;;;;;;;4.45;3.47;;;;;;;;;;5093180;28;20043;-67
2022/07/12 07:02:43;;;;;;;4.95;3.47;;;;;;;;;;5096047;28;20100;-67
2022/07/12 07:05:10;;;;;;;3.92;3.20;;;;;;;;;;5076669;28;20053;-67
2022/07/12 07:07:37;;;;;;;5.00;3.60;;;;;;;;;;5113089;27;20150;-67
2022/07/12 07:10:03;;;;;;;6.32;4.50;;;;;;;;;;5090551;28;20170;-68
2022/07/12 07:12:29;;;;;;;5.13;3.60;;;;;;;;;;5090903;28;20043;-67
2022/07/12 07:14:55;;;;;;;5.85;3.88;;;;;;;;;;5088154;28;20047;-67
2022/07/12 07:17:22;;;;;;;5.05;3.88;;;;;;;;;;5096944;28;20050;-67
2022/07/12 07:19:48;;;;;;;5.32;3.90;;;;;;;;;;5093423;28;20047;-67
2022/07/12 07:22:14;;;;;;;5.50;4.00;;;;;;;;;;5104655;27;20392;-67
2022/07/12 07:24:40;;;;;;;7.82;4.88;;;;;;;;;;5092657;28;20040;-67
2022/07/12 07:27:08;;;;;;;4.97;3.70;;;;;;;;;;5089023;28;20527;-67
2022/07/12 07:32:19;;;;;;;5.22;3.70;;;;;;;;;;5096396;28;20040;-68
2022/07/12 07:34:45;;;;;;;4.70;3.72;;;;;;;;;;5089081;28;20143;-70
2022/07/12 07:37:12;;;;;;;6.28;4.47;;;;;;;;;;5112331;27;20040;-70
2022/07/12 07:39:39;;;;;;;5.85;3.65;;;;;;;;;;5076358;28;20062;-70
2022/07/12 07:42:06;;;;;;;4.80;4.03;;;;;;;;;;5097265;28;20058;-70
2022/07/12 07:44:32;;;;;;;5.10;3.72;;;;;;;;;;5083745;28;20115;-70
2022/07/12 07:46:58;;;;;;;5.68;4.60;;;;;;;;;;5090722;28;20036;-70
2022/07/12 07:49:24;;;;;;;5.90;4.82;;;;;;;;;;5098394;28;20055;-70
2022/07/12 07:51:50;;;;;;;5.90;4.85;;;;;;;;;;5095223;28;20517;-69
2022/07/12 07:54:16;;;;;;;8.25;3.83;;;;;;;;;;5090347;28;20051;-70
2022/07/12 07:56:43;;;;;;;5.93;4.40;;;;;;;;;;5070588;28;20079;-67
2022/07/12 07:59:09;;;;;;;4.72;4.03;;;;;;;;;;5090131;28;20073;-68
2022/07/12 08:01:53;;;;;;;5.97;4.65;;;;;;;;;;5096215;28;20048;-67
2022/07/12 08:04:20;;;;;;;5.80;4.38;;;;;;;;;;5087844;28;20126;-67
2022/07/12 08:06:47;;;;;;;6.10;4.47;;;;;;;;;;5091967;28;20109;-67
2022/07/12 08:09:14;;;;;;;5.18;4.10;;;;;;;;;;5076085;28;20043;-67
2022/07/12 08:11:40;;;;;;;7.93;4.65;;;;;;;;;;5098025;28;20048;-68
2022/07/12 08:14:07;;;;;;;6.43;4.55;;;;;;;;;;5072225;28;20044;-68
2022/07/12 08:16:33;;;;;;;6.63;4.93;;;;;;;;;;5096579;28;20040;-68
2022/07/12 08:19:00;;;;;;;5.13;4.63;;;;;;;;;;5092003;28;20119;-67
2022/07/12 08:21:26;;;;;;;6.82;4.35;;;;;;;;;;5101458;28;20071;-70
2022/07/12 08:23:53;;;;;;;5.47;4.20;;;;;;;;;;5077910;28;20047;-67
2022/07/12 08:26:19;;;;;;;5.07;4.55;;;;;;;;;;5103304;28;20039;-67
2022/07/12 08:28:45;;;;;;;8.40;4.35;;;;;;;;;;5095593;28;20093;-67
2022/07/12 08:31:13;;;;;;;5.07;4.28;;;;;;;;;;5102092;28;20052;-67
2022/07/12 08:33:40;;;;;;;5.18;4.00;;;;;;;;;;5087383;28;20173;-67
2022/07/12 08:36:08;;;;;;;5.22;4.15;;;;;;;;;;5088249;28;20116;-67
2022/07/12 08:38:36;;;;;;;4.28;3.72;;;;;;;;;;5090542;28;20035;-67
2022/07/12 08:41:02;;;;;;;5.38;3.97;;;;;;;;;;5096348;28;20412;-67
2022/07/12 08:43:28;;;;;;;4.82;4.32;;;;;;;;;;5081252;28;20028;-68
2022/07/12 08:45:54;;;;;;;6.90;3.75;;;;;;;;;;5101835;27;20039;-68
2022/07/12 08:48:20;;;;;;;5.47;4.22;;;;;;;;;;5095695;28;20188;-67
2022/07/12 08:51:00;;;;;;;4.90;3.83;;;;;;;;;;5090410;28;20277;-68
2022/07/12 08:53:26;;;;;;;5.80;4.22;;;;;;;;;;5091450;28;20090;-67
2022/07/12 08:55:52;;;;;;;5.88;4.30;;;;;;;;;;5099600;28;20074;-67
2022/07/12 08:58:18;;;;;;;5.80;4.45;;;;;;;;;;5098766;28;20031;-67
2022/07/12 09:00:45;;;;;;;4.75;3.65;;;;;;;;;;5106204;27;20135;-67
2022/07/12 09:03:13;;;;;;;5.43;4.28;;;;;;;;;;5103100;27;20435;-67
2022/07/12 09:05:47;;;;;;;5.63;4.80;;;;;;;;;;5096658;28;20192;-68
2022/07/12 09:08:13;;;;;;;5.10;3.80;;;;;;;;;;5098847;28;20040;-67
2022/07/12 09:10:51;;;;;;;6.05;4.72;;;;;;;;;;5079195;28;20028;-67
2022/07/12 09:13:18;;;;;;;5.75;4.30;;;;;;;;;;5101071;27;20044;-67
2022/07/12 09:15:46;;;;;;;4.93;3.90;;;;;;;;;;5090538;28;20044;-68
2022/07/12 09:18:13;;;;;;;5.30;3.78;;;;;;;;;;5113067;27;20071;-67
2022/07/12 09:20:40;;;;;;;6.95;4.82;;;;;;;;;;5093992;28;20044;-67
2022/07/12 09:23:08;;;;;;;5.82;4.50;;;;;;;;;;5100098;27;20040;-67
2022/07/12 09:25:34;;;;;;;5.63;4.63;;;;;;;;;;5111022;27;20036;-67
2022/07/12 09:28:03;;;;;;;6.72;4.57;;;;;;;;;;5100893;27;20512;-67
2022/07/12 09:30:30;;;;;;;6.00;4.90;;;;;;;;;;5111777;27;20393;-67
2022/07/12 09:36:06;;;;;;;8.65;6.00;;;;;;;;;;5090227;28;20043;-67
2022/07/12 09:38:53;;;;;;;8.50;5.13;;;;;;;;;;5086175;28;20046;-67
2022/07/12 09:41:23;;;;;;;7.05;5.15;;;;;;;;;;5109706;27;20048;-67
2022/07/12 09:43:49;;;;;;;7.05;5.55;;;;;;;;;;5098570;28;20038;-67
2022/07/12 09:46:16;;;;;;;10.13;6.88;;;;;;;;;;5096965;28;20389;-67
2022/07/12 09:48:42;;;;;;;7.63;6.45;;;;;;;;;;5074015;28;20044;-67
2022/07/12 09:51:10;;;;;;;8.60;7.47;;;;;;;;;;5098795;28;20082;-67
2022/07/12 09:53:42;;;;;;;10.15;6.50;;;;;;;;;;5090793;28;20050;-67
2022/07/12 09:56:09;;;;;;;;;;;;;;;;;;5100097;27;20127;-67
2022/07/12 09:58:41;;;;;;;9.10;7.70;;;;;;;;;;5097774;28;19920;-67
2022/07/12 10:01:08;;;;;;;9.27;7.40;;;;;;;;;;5086657;28;20036;-67
2022/07/12 10:03:35;;;;;;;11.35;8.13;;;;;;;;;;5093287;28;20162;-67
2022/07/12 10:06:03;;;;;;;12.48;6.88;;;;;;;;;;5092482;28;20111;-66
2022/07/12 10:08:30;;;;;;;7.80;6.63;;;;;;;;;;5090762;28;20366;-67
2022/07/12 10:10:58;;;;;;;8.55;6.68;;;;;;;;;;5083366;28;20048;-67
2022/07/12 10:13:25;;;;;;;8.35;7.45;;;;;;;;;;5096416;28;20051;-67
2022/07/12 10:15:51;;;;;;;7.93;5.68;;;;;;;;;;5097646;28;20125;-68
2022/07/12 10:18:21;;;;;;;8.07;7.05;;;;;;;;;;5092741;28;20056;-67
2022/07/12 10:20:48;;;;;;;9.88;6.35;;;;;;;;;;5091747;28;20039;-67
2022/07/12 10:23:17;;;;;;;6.97;5.97;;;;;;;;;;5098923;28;20093;-67
2022/07/12 10:25:44;;;;;;;9.68;6.97;;;;;;;;;;5095579;28;20047;-67
2022/07/12 10:28:10;;;;;;;7.90;6.18;;;;;;;;;;5085794;28;20044;-67
2022/07/12 10:30:43;;;;;;;7.07;5.35;;;;;;;;;;5095922;28;20077;-67
2022/07/12 10:33:23;;;;;;;8.75;5.95;;;;;;;;;;5101341;28;20089;-66
2022/07/12 10:36:08;;;;;;;8.27;5.55;;;;;;;;;;5089064;28;20036;-67
2022/07/12 10:38:35;;;;;;;7.18;5.70;;;;;;;;;;5087707;28;20286;-67
2022/07/12 10:41:18;;;;;;;7.43;5.70;;;;;;;;;;5097094;28;20446;-67
2022/07/12 10:46:29;;;;;;;6.50;5.13;;;;;;;;;;5088117;28;20036;-67
2022/07/12 10:49:18;;;;;;;8.52;5.07;;;;;;;;;;5073108;28;20042;-68
2022/07/12 10:52:04;;;;;;;6.88;5.03;;;;;;;;;;5079346;28;20741;-67
2022/07/12 10:54:31;;;;;;;5.07;3.92;;;;;;;;;;5087939;28;21029;-67
2022/07/12 10:56:57;;;;;;;5.85;3.80;;;;;;;;;;5096280;28;20060;-68
2022/07/12 10:59:24;;;;;;;4.70;3.90;;;;;;;;;;5092673;28;20032;-68
2022/07/12 11:01:52;;;;;;;4.47;3.50;;;;;;;;;;5089415;28;20039;-67
2022/07/12 11:04:18;;;;;;;4.13;3.38;;;;;;;;;;5062606;28;20123;-66
2022/07/12 11:06:44;;;;;;;6.63;4.68;;;;;;;;;;5086285;28;20047;-66
2022/07/12 11:09:11;;;;;;;6.38;3.90;;;;;;;;;;5081723;28;20405;-67
2022/07/12 11:11:41;;;;;;;8.02;4.60;;;;;;;;;;5098495;28;20048;-66
2022/07/12 11:14:07;;;;;;;6.22;4.22;;;;;;;;;;5089814;28;20447;-66
2022/07/12 11:16:33;;;;;;;5.30;4.30;;;;;;;;;;5095567;28;20508;-66
2022/07/12 11:19:00;;;;;;;5.20;4.35;;;;;;;;;;5087703;28;20047;-66
2022/07/12 11:21:26;;;;;;;6.35;4.28;;;;;;;;;;5105264;27;20432;-67
2022/07/12 11:23:53;;;;;;;5.60;4.07;;;;;;;;;;5087784;28;20051;-67
2022/07/12 11:26:20;;;;;;;4.60;3.78;;;;;;;;;;5083051;28;20547;-67
2022/07/12 11:28:48;;;;;;;4.53;3.17;;;;;;;;;;5095840;28;20028;-67
2022/07/12 11:31:16;;;;;;;4.35;3.17;;;;;;;;;;5091591;28;20094;-67
2022/07/12 11:33:47;;;;;;;6.88;4.03;;;;;;;;;;5092968;28;20557;-67
2022/07/12 11:36:14;;;;;;;7.07;3.37;;;;;;;;;;5095286;28;20035;-66
2022/07/12 11:38:41;;;;;;;3.70;3.08;;;;;;;;;;5105651;28;20040;-66
2022/07/12 11:41:08;;;;;;;3.80;3.00;;;;;;;;;;5092139;28;20344;-65
2022/07/12 11:43:35;;;;;;;4.05;2.78;;;;;;;;;;5095273;28;20495;-67
2022/07/12 11:46:02;;;;;;;5.68;3.10;;;;;;;;;;5091315;28;20117;-66
2022/07/12 11:48:35;;;;;;;3.50;2.58;;;;;;;;;;5096341;28;20035;-67
2022/07/12 11:51:05;;;;;;;5.57;2.53;;;;;;;;;;5103949;28;20149;-66
2022/07/12 11:53:32;;;;;;;3.08;2.45;;;;;;;;;;5092889;28;20036;-66
2022/07/12 11:55:59;;;;;;;4.97;2.60;;;;;;;;;;5088772;28;20514;-66
2022/07/12 11:58:26;;;;;;;4.07;2.25;;;;;;;;;;5095013;28;20040;-66
2022/07/12 12:00:53;;;;;;;3.58;2.33;;;;;;;;;;5094718;28;20032;-66
2022/07/12 12:03:24;;;;;;;4.75;2.10;;;;;;;;;;5098548;28;20031;-66
2022/07/12 12:05:51;;;;;;;4.68;2.15;;;;;;;;;;5091043;28;20116;-66
2022/07/12 12:08:18;;;;;;;2.85;2.08;;;;;;;;;;5091029;28;20481;-67
2022/07/12 12:10:52;;;;;;;3.50;2.47;;;;;;;;;;5088907;28;20041;-66
2022/07/12 12:13:19;;;;;;;4.70;2.78;;;;;;;;;;5088444;28;20048;-66
2022/07/12 12:15:52;;;;;;;3.78;2.72;;;;;;;;;;5089708;28;20035;-67
2022/07/12 12:18:28;;;;;;;3.72;2.50;;;;;;;;;;5096278;28;20405;-66
2022/07/12 12:20:58;;;;;;;3.42;1.38;;;;;;;;;;5090805;28;20036;-66
2022/07/12 12:23:25;;;;;;;5.53;2.33;;;;;;;;;;5098667;28;20071;-66
2022/07/12 12:25:51;;;;;;;3.30;1.70;;;;;;;;;;5090910;28;20389;-66
2022/07/12 12:28:17;;;;;;;4.55;2.53;;;;;;;;;;5100491;28;20131;-66
2022/07/12 12:30:51;;;;;;;6.72;2.47;;;26.00;93.60;;;;;;5099793;28;20035;-66
2022/07/12 12:33:34;;;;;;;2.35;1.98;;;;;;;;;;5097540;28;20039;-66
2022/07/12 12:36:17;;;;;;;4.50;1.80;;;;;;;;;;5094198;28;20075;-66
2022/07/12 12:38:43;;;;;;;3.13;2.40;;;;;;;;;;5098605;28;20099;-66
2022/07/12 12:41:10;;;;;;;2.83;1.55;;;;;;;;;;5092650;28;20055;-66
2022/07/12 12:43:36;;;;;;;3.45;1.98;;;;;;;;;;5099213;28;20028;-66
2022/07/12 12:46:02;;;;;;;2.22;1.77;;;;;;;;;;5099071;28;20047;-66
2022/07/12 12:48:30;;;;;;;3.78;2.00;;;;;;;;;;5095692;28;20047;-66
2022/07/12 12:51:08;;;;;;;2.25;1.83;;;;;;;;;;5107865;27;20143;-66
2022/07/12 12:53:36;;;;;;;2.47;1.58;;;;;;;;;;5098776;28;20516;-65
2022/07/12 12:56:05;;;;;;;4.45;1.90;;;;;;;;;;5099175;28;20055;-66
2022/07/12 12:58:31;;;;;;;2.58;1.70;;;;;;;;;;5095434;28;20051;-66
2022/07/12 13:00:57;;;;;;;4.90;1.85;;;;;;;;;;5093872;28;20142;-66
2022/07/12 13:03:24;;;;;;;2.15;1.40;;;;;;;;;;5091025;28;20413;-66
2022/07/12 13:05:51;;;;;;;3.83;1.83;;;;;;;;;;5097857;28;20036;-66
2022/07/12 13:08:17;;;;;;;2.10;1.42;;;;;;;;;;5097922;28;20032;-66
2022/07/12 13:10:45;;;;;;;2.50;2.10;;;;;;;;;;5095321;28;20071;-66
2022/07/12 13:13:12;;;;;;;4.78;2.25;;;;;;;;;;5092596;28;20032;-66
2022/07/12 13:15:39;;;;;;;2.70;2.10;;;;;;;;;;5092571;28;20119;-66
2022/07/12 13:18:06;;;;;;;3.47;1.70;;;;;;;;;;5095673;28;20063;-66
2022/07/12 13:20:32;;;;;;;3.50;1.98;;;;;;;;;;5097646;28;20174;-66
2022/07/12 13:22:58;;;;;;;5.18;3.05;;;;;;;;;;5090142;28;20043;-66
2022/07/12 13:25:25;;;;;;;3.63;2.83;;;;;;;;;;5097127;28;20075;-66
2022/07/12 13:27:52;;;;;;;6.60;3.42;;;;;;;;;;5086672;28;20036;-65
2022/07/12 13:30:19;;;;;;;4.55;2.55;;;;;;;;;;5097115;28;20140;-66
2022/07/12 13:32:45;;;;;;;3.03;2.63;;;;;;;;;;5090965;28;20503;-66
2022/07/12 13:35:12;;;;;;;3.88;2.40;;;;;;;;;;5098953;28;20036;-65
2022/07/12 13:37:40;;;;;;;3.97;2.72;;;;;;;;;;5100186;28;20114;-66
2022/07/12 13:40:16;;;;;;;3.47;2.50;;;;;;;;;;5110642;27;20087;-67
2022/07/12 13:42:42;;;;;;;4.35;3.38;;;;;;;;;;5093166;28;20040;-66
2022/07/12 13:45:10;;;;;;;4.22;2.95;;;;;;;;;;5092008;28;20560;-66
2022/07/12 13:47:36;;;;;;;4.35;2.58;;;;;;;;;;5100831;28;20320;-66
2022/07/12 13:50:04;;;;;;;5.18;2.80;;;;;;;;;;5078791;28;20051;-67
2022/07/12 13:52:30;;;;;;;4.45;3.17;;;;;;;;;;5096797;28;20097;-65
2022/07/12 13:54:56;;;;;;;4.05;2.85;;;;;;;;;;5092612;28;20582;-66
2022/07/12 13:57:23;;;;;;;4.53;3.03;;;;;;;;;;5096070;28;20039;-65
2022/07/12 13:59:49;;;;;;;5.25;2.65;;;;;;;;;;5092419;28;20040;-65
2022/07/12 14:02:15;;;;;;;5.07;3.97;;;;;;;;;;5097625;28;20136;-65
2022/07/12 14:04:41;;;;;;;4.55;3.10;;;;;;;;;;5092167;28;20044;-66
2022/07/12 14:07:07;;;;;;;5.18;3.90;;;;;;;;;;5093789;28;20057;-66
2022/07/12 14:09:33;;;;;;;6.93;4.10;;;;;;;;;;5097546;28;20425;-65
2022/07/12 14:12:01;;;;;;;4.35;3.20;;;;;;;;;;5091125;28;20139;-65
2022/07/12 14:17:12;;;;;;;4.38;2.65;;;;;;;;;;5091375;28;20066;-66
2022/07/12 14:19:39;;;;;;;3.95;2.67;;;;;;;;;;5090363;28;20296;-66
2022/07/12 14:22:05;;;;;;;6.53;3.83;;;;;;;;;;5091057;28;20107;-65
2022/07/12 14:24:32;;;;;;;4.50;2.60;;;;;;;;;;5098704;28;20071;-66
2022/07/12 14:26:58;;;;;;;5.95;2.55;;;;;;;;;;5100939;28;20119;-66
2022/07/12 14:29:26;;;;;;;3.88;2.95;;;;;;;;;;5075056;28;20040;-65
2022/07/12 14:31:52;;;;;;;3.80;2.67;;;;;;;;;;5091379;28;20046;-65
2022/07/12 14:34:19;;;;;;;5.70;3.33;;;;;;;;;;5091449;28;20078;-67
2022/07/12 14:36:45;;;;;;;4.88;3.17;;;;;;;;;;5091648;28;20114;-66
2022/07/12 14:39:11;;;;;;;3.95;2.70;;;;;;;;;;5095559;28;20075;-67
2022/07/12 14:41:38;;;;;;;4.20;2.30;;;;;;;;;;5096315;28;20066;-66
2022/07/12 14:44:06;;;;;;;2.90;2.58;;;;;;;;;;5095129;28;20494;-66
2022/07/12 14:46:33;;;;;;;4.55;2.72;;;;;;;;;;5091046;28;20035;-66
2022/07/12 14:49:00;;;;;;;3.95;2.53;;;;;;;;;;5091116;28;20288;-65
2022/07/12 14:51:26;;;;;;;5.57;2.88;;;;;;;;;;5096682;28;20089;-66
2022/07/12 14:53:53;;;;;;;3.63;2.53;;;;;;;;;;5098366;28;20103;-66
2022/07/12 14:56:20;;;;;;;5.97;2.85;;;;;;;;;;5078500;28;20039;-66
2022/07/12 14:58:46;;;;;;;3.88;2.55;;;;;;;;;;5092171;28;20232;-66
2022/07/12 15:01:12;;;;;;;3.90;2.78;;;;;;;;;;5091248;28;20349;-66